Time,TemperatureF,DewpointF,PressureIn,WindDirection,WindDirectionDegrees,WindSpeedMPH,WindSpeedGustMPH,Humidity,HourlyPrecipIn,Conditions,Clouds,dailyrainin,SoftwareType,DateUTC
2013-02-08 00:02:00,39.3,26.6,30.06,North,0,0.0,0.0,60,0.00,,,0.00,WUHU216DAVISVP2,2013-02-08 07:02:00,
2013-02-08 00:08:00,38.2,26.8,30.06,North,0,0.0,0.0,63,0.00,,,0.00,WUHU216DAVISVP2,2013-02-08 07:08:00,
2013-02-08 00:13:00,39.5,27.2,30.06,North,0,0.0,0.0,61,0.00,,,0.00,WUHU216DAVISVP2,2013-02-08 07:13:00,
2013-02-08 00:18:00,39.4,27.1,30.06,North,0,0.0,0.0,61,0.00,,,0.00,WUHU216DAVISVP2,2013-02-08 07:18:00,
2013-02-08 00:23:00,40.2,27.5,30.06,North,0,0.0,0.0,60,0.00,,,0.00,WUHU216DAVISVP2,2013-02-08 07:23:00,
2013-02-08 00:28:00,40.3,27.2,30.06,North,0,0.0,0.0,59,0.00,,,0.00,WUHU216DAVISVP2,2013-02-08 07:28:00,
2013-02-08 00:33:00,41.6,27.5,30.06,North,0,0.0,0.0,57,0.00,,,0.00,WUHU216DAVISVP2,2013-02-08 07:33:00,
2013-02-08 00:38:00,42.2,27.2,30.06,North,0,0.0,0.0,55,0.00,,,0.00,WUHU216DAVISVP2,2013-02-08 07:38:00,
2013-02-08 00:43:00,41.3,26.8,30.06,North,0,0.0,0.0,56,0.00,,,0.00,WUHU216DAVISVP2,2013-02-08 07:43:00,
2013-02-08 00:48:00,40.6,26.6,30.06,North,0,0.0,0.0,57,0.00,,,0.00,WUHU216DAVISVP2,2013-02-08 07:48:00,
2013-02-08 00:53:00,39.6,26.5,30.06,North,0,0.0,0.0,59,0.00,,,0.00,WUHU216DAVISVP2,2013-02-08 07:53:00,
2013-02-08 00:58:00,40.2,26.6,30.06,North,0,0.0,0.0,58,0.00,,,0.00,WUHU216DAVISVP2,2013-02-08 07:58:00,
2013-02-08 01:03:00,40.0,26.5,30.06,North,0,0.0,0.0,58,0.00,,,0.00,WUHU216DAVISVP2,2013-02-08 08:03:00,
2013-02-08 01:08:00,40.5,26.5,30.06,North,0,0.0,0.0,57,0.00,,,0.00,WUHU216DAVISVP2,2013-02-08 08:08:00,
2013-02-08 01:13:00,40.7,26.7,30.06,North,0,0.0,0.0,57,0.00,,,0.00,WUHU216DAVISVP2,2013-02-08 08:13:00,
2013-02-08 01:18:00,40.5,26.5,30.06,North,0,0.0,0.0,57,0.00,,,0.00,WUHU216DAVISVP2,2013-02-08 08:18:00,
2013-02-08 01:23:00,40.4,26.4,30.06,North,0,0.0,0.0,57,0.00,,,0.00,WUHU216DAVISVP2,2013-02-08 08:23:00,
2013-02-08 01:29:00,40.8,26.3,30.06,North,0,0.0,0.0,56,0.00,,,0.00,WUHU216DAVISVP2,2013-02-08 08:29:00,
2013-02-08 01:34:00,40.0,26.5,30.05,North,0,0.0,0.0,58,0.00,,,0.00,WUHU216DAVISVP2,2013-02-08 08:34:00,
2013-02-08 01:39:00,40.1,26.5,30.05,North,0,0.0,0.0,58,0.00,,,0.00,WUHU216DAVISVP2,2013-02-08 08:39:00,
2013-02-08 01:44:00,39.3,26.2,30.05,North,0,0.0,0.0,59,0.00,,,0.00,WUHU216DAVISVP2,2013-02-08 08:44:00,
2013-02-08 01:49:00,39.9,26.4,30.05,North,0,0.0,0.0,58,0.00,,,0.00,WUHU216DAVISVP2,2013-02-08 08:49:00,
2013-02-08 01:54:00,40.7,26.2,30.05,North,0,0.0,0.0,56,0.00,,,0.00,WUHU216DAVISVP2,2013-02-08 08:54:00,
2013-02-08 01:59:00,41.5,26.5,30.05,North,0,0.0,0.0,55,0.00,,,0.00,WUHU216DAVISVP2,2013-02-08 08:59:00,
2013-02-08 02:04:00,41.6,26.2,30.05,North,0,0.0,0.0,54,0.00,,,0.00,WUHU216DAVISVP2,2013-02-08 09:04:00,
2013-02-08 02:09:00,40.8,25.9,30.05,North,0,0.0,0.0,55,0.00,,,0.00,WUHU216DAVISVP2,2013-02-08 09:09:00,
2013-02-08 02:14:00,38.8,25.7,30.05,North,0,0.0,0.0,59,0.00,,,0.00,WUHU216DAVISVP2,2013-02-08 09:14:00,
2013-02-08 02:19:00,39.0,25.9,30.04,North,0,0.0,0.0,59,0.00,,,0.00,WUHU216DAVISVP2,2013-02-08 09:19:00,
2013-02-08 02:24:00,40.0,25.1,30.04,North,0,0.0,0.0,55,0.00,,,0.00,WUHU216DAVISVP2,2013-02-08 09:24:00,
2013-02-08 02:29:00,41.3,25.0,30.04,North,0,0.0,0.0,52,0.00,,,0.00,WUHU216DAVISVP2,2013-02-08 09:29:00,
2013-02-08 02:34:00,41.8,24.5,30.04,North,0,0.0,0.0,50,0.00,,,0.00,WUHU216DAVISVP2,2013-02-08 09:34:00,
2013-02-08 02:39:00,42.0,24.7,30.04,North,0,0.0,0.0,50,0.00,,,0.00,WUHU216DAVISVP2,2013-02-08 09:39:00,
2013-02-08 02:44:00,42.2,24.3,30.03,North,0,0.0,0.0,49,0.00,,,0.00,WUHU216DAVISVP2,2013-02-08 09:44:00,
2013-02-08 02:49:00,42.3,23.9,30.03,North,0,0.0,0.0,48,0.00,,,0.00,WUHU216DAVISVP2,2013-02-08 09:49:00,
2013-02-08 02:55:00,42.0,23.6,30.03,North,0,0.0,0.0,48,0.00,,,0.00,WUHU216DAVISVP2,2013-02-08 09:55:00,
2013-02-08 03:00:00,41.7,23.4,30.03,North,0,0.0,0.0,48,0.00,,,0.00,WUHU216DAVISVP2,2013-02-08 10:00:00,
2013-02-08 03:05:00,40.0,23.8,30.02,North,0,0.0,0.0,52,0.00,,,0.00,WUHU216DAVISVP2,2013-02-08 10:05:00,
2013-02-08 03:10:00,38.9,23.7,30.03,North,0,0.0,0.0,54,0.00,,,0.00,WUHU216DAVISVP2,2013-02-08 10:10:00,
2013-02-08 03:15:00,38.7,23.0,30.02,North,0,0.0,0.0,53,0.00,,,0.00,WUHU216DAVISVP2,2013-02-08 10:15:00,
2013-02-08 03:20:00,39.0,23.3,30.02,North,0,0.0,0.0,53,0.00,,,0.00,WUHU216DAVISVP2,2013-02-08 10:20:00,
2013-02-08 03:25:00,39.6,23.4,30.02,North,0,0.0,0.0,52,0.00,,,0.00,WUHU216DAVISVP2,2013-02-08 10:25:00,
2013-02-08 03:30:00,39.8,22.6,30.02,North,0,0.0,0.0,50,0.00,,,0.00,WUHU216DAVISVP2,2013-02-08 10:30:00,
2013-02-08 03:35:00,38.6,23.4,30.02,North,0,0.0,0.0,54,0.00,,,0.00,WUHU216DAVISVP2,2013-02-08 10:35:00,
2013-02-08 03:40:00,38.4,22.7,30.02,North,0,0.0,0.0,53,0.00,,,0.00,WUHU216DAVISVP2,2013-02-08 10:40:00,
2013-02-08 03:45:00,38.0,22.8,30.02,North,0,0.0,0.0,54,0.00,,,0.00,WUHU216DAVISVP2,2013-02-08 10:45:00,
2013-02-08 03:51:00,38.3,22.6,30.02,North,0,0.0,0.0,53,0.00,,,0.00,WUHU216DAVISVP2,2013-02-08 10:51:00,
2013-02-08 03:56:00,38.6,22.0,30.02,North,0,0.0,0.0,51,0.00,,,0.00,WUHU216DAVISVP2,2013-02-08 10:56:00,
2013-02-08 04:01:00,39.3,22.2,30.02,North,0,0.0,0.0,50,0.00,,,0.00,WUHU216DAVISVP2,2013-02-08 11:01:00,
2013-02-08 04:06:00,39.6,21.4,30.02,North,0,0.0,0.0,48,0.00,,,0.00,WUHU216DAVISVP2,2013-02-08 11:06:00,
2013-02-08 04:11:00,39.7,22.5,30.02,North,0,0.0,0.0,50,0.00,,,0.00,WUHU216DAVISVP2,2013-02-08 11:11:00,
2013-02-08 04:16:00,39.1,22.4,30.02,North,0,0.0,0.0,51,0.00,,,0.00,WUHU216DAVISVP2,2013-02-08 11:16:00,
2013-02-08 04:21:00,37.8,21.7,30.02,North,0,0.0,0.0,52,0.00,,,0.00,WUHU216DAVISVP2,2013-02-08 11:21:00,
2013-02-08 04:26:00,37.6,21.1,30.01,North,0,0.0,0.0,51,0.00,,,0.00,WUHU216DAVISVP2,2013-02-08 11:26:00,
2013-02-08 04:31:00,39.1,21.5,30.01,North,0,0.0,0.0,49,0.00,,,0.00,WUHU216DAVISVP2,2013-02-08 11:31:00,
2013-02-08 04:36:00,39.9,21.2,30.01,North,0,0.0,0.0,47,0.00,,,0.00,WUHU216DAVISVP2,2013-02-08 11:36:00,
2013-02-08 04:41:00,40.0,22.3,30.01,North,0,0.0,0.0,49,0.00,,,0.00,WUHU216DAVISVP2,2013-02-08 11:41:00,
2013-02-08 04:46:00,38.1,22.0,30.01,North,0,0.0,0.0,52,0.00,,,0.00,WUHU216DAVISVP2,2013-02-08 11:46:00,
2013-02-08 04:52:00,37.2,21.2,30.01,North,0,0.0,0.0,52,0.00,,,0.00,WUHU216DAVISVP2,2013-02-08 11:52:00,
2013-02-08 04:57:00,37.7,21.6,30.01,North,0,0.0,0.0,52,0.00,,,0.00,WUHU216DAVISVP2,2013-02-08 11:57:00,
2013-02-08 05:02:00,37.7,21.1,30.02,North,0,0.0,0.0,51,0.00,,,0.00,WUHU216DAVISVP2,2013-02-08 12:02:00,
2013-02-08 05:07:00,38.2,21.1,30.02,North,0,0.0,0.0,50,0.00,,,0.00,WUHU216DAVISVP2,2013-02-08 12:07:00,
2013-02-08 05:12:00,38.4,21.8,30.02,North,0,0.0,0.0,51,0.00,,,0.00,WUHU216DAVISVP2,2013-02-08 12:12:00,
2013-02-08 05:17:00,37.0,21.4,30.02,North,0,0.0,0.0,53,0.00,,,0.00,WUHU216DAVISVP2,2013-02-08 12:17:00,
2013-02-08 05:22:00,36.1,21.5,30.02,North,0,0.0,0.0,55,0.00,,,0.00,WUHU216DAVISVP2,2013-02-08 12:22:00,
2013-02-08 05:27:00,36.4,22.2,30.02,North,0,0.0,0.0,56,0.00,,,0.00,WUHU216DAVISVP2,2013-02-08 12:27:00,
2013-02-08 05:32:00,34.7,21.9,30.02,North,0,0.0,0.0,59,0.00,,,0.00,WUHU216DAVISVP2,2013-02-08 12:32:00,
2013-02-08 05:37:00,34.2,21.8,30.02,North,0,0.0,0.0,60,0.00,,,0.00,WUHU216DAVISVP2,2013-02-08 12:37:00,
2013-02-08 05:42:00,33.4,22.2,30.02,North,0,0.0,0.0,63,0.00,,,0.00,WUHU216DAVISVP2,2013-02-08 12:42:00,
2013-02-08 05:47:00,32.9,22.1,30.02,North,0,0.0,0.0,64,0.00,,,0.00,WUHU216DAVISVP2,2013-02-08 12:47:00,
2013-02-08 05:52:00,32.9,22.1,30.02,North,0,0.0,0.0,64,0.00,,,0.00,WUHU216DAVISVP2,2013-02-08 12:52:00,
2013-02-08 05:57:00,33.1,22.3,30.02,North,0,0.0,0.0,64,0.00,,,0.00,WUHU216DAVISVP2,2013-02-08 12:57:00,
2013-02-08 06:02:00,34.1,22.5,30.02,North,0,0.0,0.0,62,0.00,,,0.00,WUHU216DAVISVP2,2013-02-08 13:02:00,
2013-02-08 06:07:00,36.3,21.7,30.02,North,0,0.0,0.0,55,0.00,,,0.00,WUHU216DAVISVP2,2013-02-08 13:07:00,
2013-02-08 06:13:00,36.7,22.5,30.02,North,0,0.0,0.0,56,0.00,,,0.00,WUHU216DAVISVP2,2013-02-08 13:13:00,
2013-02-08 06:18:00,36.9,21.3,30.02,North,0,0.0,0.0,53,0.00,,,0.00,WUHU216DAVISVP2,2013-02-08 13:18:00,
2013-02-08 06:23:00,37.8,21.7,30.02,North,0,0.0,0.0,52,0.00,,,0.00,WUHU216DAVISVP2,2013-02-08 13:23:00,
2013-02-08 06:28:00,37.5,21.9,30.02,North,0,0.0,0.0,53,0.00,,,0.00,WUHU216DAVISVP2,2013-02-08 13:28:00,
2013-02-08 06:33:00,37.8,21.7,30.02,North,0,0.0,0.0,52,0.00,,,0.00,WUHU216DAVISVP2,2013-02-08 13:33:00,
2013-02-08 06:38:00,37.6,22.0,30.02,North,0,0.0,0.0,53,0.00,,,0.00,WUHU216DAVISVP2,2013-02-08 13:38:00,
2013-02-08 06:43:00,38.4,20.8,30.02,North,0,0.0,0.0,49,0.00,,,0.00,WUHU216DAVISVP2,2013-02-08 13:43:00,
2013-02-08 06:48:00,39.6,22.4,30.02,North,0,0.0,0.0,50,0.00,,,0.00,WUHU216DAVISVP2,2013-02-08 13:48:00,
2013-02-08 06:53:00,39.1,22.0,30.02,North,0,0.0,0.0,50,0.00,,,0.00,WUHU216DAVISVP2,2013-02-08 13:53:00,
2013-02-08 06:58:00,39.0,21.4,30.01,North,0,0.0,0.0,49,0.00,,,0.00,WUHU216DAVISVP2,2013-02-08 13:58:00,
2013-02-08 07:03:00,39.2,20.6,30.01,North,0,0.0,0.0,47,0.00,,,0.00,WUHU216DAVISVP2,2013-02-08 14:03:00,
2013-02-08 07:08:00,39.5,20.3,30.01,North,0,0.0,0.0,46,0.00,,,0.00,WUHU216DAVISVP2,2013-02-08 14:08:00,
2013-02-08 07:13:00,39.9,21.2,30.02,North,0,0.0,0.0,47,0.00,,,0.00,WUHU216DAVISVP2,2013-02-08 14:13:00,
2013-02-08 07:18:00,39.1,21.0,30.01,North,0,0.0,0.0,48,0.00,,,0.00,WUHU216DAVISVP2,2013-02-08 14:18:00,
2013-02-08 07:23:00,38.5,21.9,30.01,North,0,0.0,0.0,51,0.00,,,0.00,WUHU216DAVISVP2,2013-02-08 14:23:00,
2013-02-08 07:29:00,38.0,20.9,30.01,North,0,0.0,0.0,50,0.00,,,0.00,WUHU216DAVISVP2,2013-02-08 14:29:00,
2013-02-08 07:34:00,38.6,22.0,30.01,North,0,0.0,0.0,51,0.00,,,0.00,WUHU216DAVISVP2,2013-02-08 14:34:00,
2013-02-08 07:39:00,39.2,21.6,30.01,North,0,0.0,0.0,49,0.00,,,0.00,WUHU216DAVISVP2,2013-02-08 14:39:00,
2013-02-08 07:44:00,40.3,22.1,30.01,North,0,0.0,0.0,48,0.00,,,0.00,WUHU216DAVISVP2,2013-02-08 14:44:00,
2013-02-08 07:49:00,41.0,21.1,30.01,North,0,0.0,0.0,45,0.00,,,0.00,WUHU216DAVISVP2,2013-02-08 14:49:00,
2013-02-08 07:54:00,41.7,22.3,30.02,North,0,0.0,0.0,46,0.00,,,0.00,WUHU216DAVISVP2,2013-02-08 14:54:00,
2013-02-08 07:59:00,42.2,21.7,30.02,North,0,0.0,0.0,44,0.00,,,0.00,WUHU216DAVISVP2,2013-02-08 14:59:00,
2013-02-08 08:04:00,42.8,22.8,30.01,North,0,0.0,0.0,45,0.00,,,0.00,WUHU216DAVISVP2,2013-02-08 15:04:00,
2013-02-08 08:09:00,43.5,21.7,30.01,SE,146,4.0,5.0,42,0.00,,,0.00,WUHU216DAVISVP2,2013-02-08 15:09:00,
2013-02-08 08:14:00,44.6,22.7,30.01,SE,139,3.0,6.0,42,0.00,,,0.00,WUHU216DAVISVP2,2013-02-08 15:14:00,
2013-02-08 08:19:00,45.1,23.2,30.01,North,0,0.0,0.0,42,0.00,,,0.00,WUHU216DAVISVP2,2013-02-08 15:19:00,
2013-02-08 08:24:00,45.1,23.2,30.01,North,0,0.0,0.0,42,0.00,,,0.00,WUHU216DAVISVP2,2013-02-08 15:24:00,
2013-02-08 08:29:00,45.2,23.3,30.01,North,0,0.0,0.0,42,0.00,,,0.00,WUHU216DAVISVP2,2013-02-08 15:29:00,
2013-02-08 08:34:00,45.3,23.4,30.01,North,0,0.0,0.0,42,0.00,,,0.00,WUHU216DAVISVP2,2013-02-08 15:34:00,
2013-02-08 08:39:00,45.9,23.9,30.02,North,0,0.0,0.0,42,0.00,,,0.00,WUHU216DAVISVP2,2013-02-08 15:39:00,
2013-02-08 08:45:00,46.3,23.1,30.01,North,0,0.0,0.0,40,0.00,,,0.00,WUHU216DAVISVP2,2013-02-08 15:45:00,
2013-02-08 08:50:00,46.5,23.3,30.01,SSE,149,4.0,7.0,40,0.00,,,0.00,WUHU216DAVISVP2,2013-02-08 15:50:00,
2013-02-08 08:55:00,46.9,22.4,30.01,SSE,153,4.0,7.0,38,0.00,,,0.00,WUHU216DAVISVP2,2013-02-08 15:55:00,
2013-02-08 09:00:00,47.4,22.8,30.01,SSE,158,4.0,7.0,38,0.00,,,0.00,WUHU216DAVISVP2,2013-02-08 16:00:00,
2013-02-08 09:05:00,47.9,22.6,30.01,SSE,151,3.0,6.0,37,0.00,,,0.00,WUHU216DAVISVP2,2013-02-08 16:05:00,
2013-02-08 09:10:00,48.3,23.0,30.01,SSE,149,3.0,7.0,37,0.00,,,0.00,WUHU216DAVISVP2,2013-02-08 16:10:00,
2013-02-08 09:15:00,49.0,23.0,30.02,SE,141,4.0,8.0,36,0.00,,,0.00,WUHU216DAVISVP2,2013-02-08 16:15:00,
2013-02-08 09:20:00,49.2,23.1,30.02,SSE,153,4.0,7.0,36,0.00,,,0.00,WUHU216DAVISVP2,2013-02-08 16:20:00,
2013-02-08 09:25:00,49.5,23.4,30.02,SSE,149,3.0,6.0,36,0.00,,,0.00,WUHU216DAVISVP2,2013-02-08 16:25:00,
2013-02-08 09:30:00,50.1,23.9,30.02,SSE,153,3.0,5.0,36,0.00,,,0.00,WUHU216DAVISVP2,2013-02-08 16:30:00,
2013-02-08 09:36:00,50.4,23.5,30.02,SE,142,4.0,7.0,35,0.00,,,0.00,WUHU216DAVISVP2,2013-02-08 16:36:00,
2013-02-08 09:41:00,50.6,23.7,30.02,SE,143,3.0,8.0,35,0.00,,,0.00,WUHU216DAVISVP2,2013-02-08 16:41:00,
2013-02-08 09:46:00,50.9,23.3,30.01,SSE,151,3.0,6.0,34,0.00,,,0.00,WUHU216DAVISVP2,2013-02-08 16:46:00,
2013-02-08 09:51:00,50.9,23.3,30.01,SSE,152,3.0,7.0,34,0.00,,,0.00,WUHU216DAVISVP2,2013-02-08 16:51:00,
2013-02-08 09:57:00,51.0,23.4,30.01,SSE,150,4.0,7.0,34,0.00,,,0.00,WUHU216DAVISVP2,2013-02-08 16:57:00,
2013-02-08 10:02:00,51.6,23.9,30.01,SSE,149,4.0,8.0,34,0.00,,,0.00,WUHU216DAVISVP2,2013-02-08 17:02:00,
2013-02-08 10:07:00,51.9,24.2,30.02,SSE,154,4.0,8.0,34,0.00,,,0.00,WUHU216DAVISVP2,2013-02-08 17:07:00,
2013-02-08 10:12:00,52.0,23.5,30.01,SE,140,7.0,10.0,33,0.00,,,0.00,WUHU216DAVISVP2,2013-02-08 17:12:00,
2013-02-08 10:17:00,52.2,23.7,30.01,SE,146,6.0,11.0,33,0.00,,,0.00,WUHU216DAVISVP2,2013-02-08 17:17:00,
2013-02-08 10:22:00,52.1,23.6,30.01,SSE,151,5.0,9.0,33,0.00,,,0.00,WUHU216DAVISVP2,2013-02-08 17:22:00,
2013-02-08 10:27:00,52.2,24.4,30.01,SSE,154,5.0,9.0,34,0.00,,,0.00,WUHU216DAVISVP2,2013-02-08 17:27:00,
2013-02-08 10:32:00,52.7,24.2,30.01,SSE,159,4.0,7.0,33,0.00,,,0.00,WUHU216DAVISVP2,2013-02-08 17:32:00,
2013-02-08 10:37:00,52.8,24.2,30.01,SE,146,6.0,10.0,33,0.00,,,0.00,WUHU216DAVISVP2,2013-02-08 17:37:00,
2013-02-08 10:42:00,53.0,24.4,30.00,SSE,150,4.0,9.0,33,0.00,,,0.00,WUHU216DAVISVP2,2013-02-08 17:42:00,
2013-02-08 10:47:00,53.4,24.0,30.00,SSE,157,5.0,10.0,32,0.00,,,0.00,WUHU216DAVISVP2,2013-02-08 17:47:00,
2013-02-08 10:53:00,53.4,24.8,30.00,SE,132,6.0,11.0,33,0.00,,,0.00,WUHU216DAVISVP2,2013-02-08 17:53:00,
2013-02-08 10:58:00,54.1,24.6,30.00,SSE,155,3.0,7.0,32,0.00,,,0.00,WUHU216DAVISVP2,2013-02-08 17:58:00,
2013-02-08 11:03:00,55.1,19.7,30.00,South,187,6.0,12.0,25,0.00,,,0.00,WUHU216DAVISVP2,2013-02-08 18:03:00,
2013-02-08 11:08:00,56.3,18.8,30.00,SSW,197,10.0,18.0,23,0.00,,,0.00,WUHU216DAVISVP2,2013-02-08 18:08:00,
2013-02-08 11:13:00,56.7,19.2,29.99,SSW,205,9.0,14.0,23,0.00,,,0.00,WUHU216DAVISVP2,2013-02-08 18:13:00,
2013-02-08 11:18:00,56.9,18.3,29.99,South,181,11.0,18.0,22,0.00,,,0.00,WUHU216DAVISVP2,2013-02-08 18:18:00,
2013-02-08 11:23:00,56.8,18.2,30.00,South,190,9.0,16.0,22,0.00,,,0.00,WUHU216DAVISVP2,2013-02-08 18:23:00,
2013-02-08 11:28:00,57.0,18.4,30.00,SSW,194,8.0,19.0,22,0.00,,,0.00,WUHU216DAVISVP2,2013-02-08 18:28:00,
2013-02-08 11:33:00,57.4,18.7,29.99,SSW,199,9.0,16.0,22,0.00,,,0.00,WUHU216DAVISVP2,2013-02-08 18:33:00,
2013-02-08 11:38:00,57.9,18.1,29.99,SSW,203,9.0,17.0,21,0.00,,,0.00,WUHU216DAVISVP2,2013-02-08 18:38:00,
2013-02-08 11:43:00,58.2,16.1,29.99,South,190,9.0,17.0,19,0.00,,,0.00,WUHU216DAVISVP2,2013-02-08 18:43:00,
2013-02-08 11:49:00,58.2,17.2,29.99,SSW,198,7.0,13.0,20,0.00,,,0.00,WUHU216DAVISVP2,2013-02-08 18:49:00,
2013-02-08 11:54:00,58.4,16.2,29.99,SSW,208,8.0,16.0,19,0.00,,,0.00,WUHU216DAVISVP2,2013-02-08 18:54:00,
2013-02-08 11:59:00,58.5,15.1,29.99,SW,216,9.0,15.0,18,0.00,,,0.00,WUHU216DAVISVP2,2013-02-08 18:59:00,
2013-02-08 12:04:00,58.5,15.1,29.98,SSW,209,10.0,17.0,18,0.00,,,0.00,WUHU216DAVISVP2,2013-02-08 19:04:00,
2013-02-08 12:09:00,58.8,16.6,29.98,South,189,10.0,18.0,19,0.00,,,0.00,WUHU216DAVISVP2,2013-02-08 19:09:00,
2013-02-08 12:14:00,58.8,16.6,29.98,South,190,8.0,14.0,19,0.00,,,0.00,WUHU216DAVISVP2,2013-02-08 19:14:00,
2013-02-08 12:19:00,59.0,15.5,29.98,SSW,195,7.0,10.0,18,0.00,,,0.00,WUHU216DAVISVP2,2013-02-08 19:19:00,
2013-02-08 12:24:00,59.1,16.8,29.97,SSW,197,8.0,13.0,19,0.00,,,0.00,WUHU216DAVISVP2,2013-02-08 19:24:00,
2013-02-08 12:29:00,59.3,17.0,29.97,South,184,7.0,12.0,19,0.00,,,0.00,WUHU216DAVISVP2,2013-02-08 19:29:00,
2013-02-08 12:34:00,59.7,17.3,29.97,South,187,7.0,12.0,19,0.00,,,0.00,WUHU216DAVISVP2,2013-02-08 19:34:00,
2013-02-08 12:39:00,59.6,18.4,29.97,South,188,7.0,14.0,20,0.00,,,0.00,WUHU216DAVISVP2,2013-02-08 19:39:00,
2013-02-08 12:44:00,59.6,17.2,29.97,South,182,5.0,13.0,19,0.00,,,0.00,WUHU216DAVISVP2,2013-02-08 19:44:00,
2013-02-08 12:49:00,59.2,18.1,29.96,South,189,4.0,6.0,20,0.00,,,0.00,WUHU216DAVISVP2,2013-02-08 19:49:00,
2013-02-08 12:54:00,59.7,14.7,29.96,SSW,209,6.0,11.0,17,0.00,,,0.00,WUHU216DAVISVP2,2013-02-08 19:54:00,
2013-02-08 12:59:00,59.5,14.6,29.95,SSW,212,9.0,19.0,17,0.00,,,0.00,WUHU216DAVISVP2,2013-02-08 19:59:00,
2013-02-08 13:04:00,59.2,16.9,29.95,SSW,208,8.0,16.0,19,0.00,,,0.00,WUHU216DAVISVP2,2013-02-08 20:04:00,
2013-02-08 13:10:00,59.0,16.7,29.95,SSW,208,7.0,12.0,19,0.00,,,0.00,WUHU216DAVISVP2,2013-02-08 20:10:00,
2013-02-08 13:15:00,59.3,17.0,29.94,SSW,193,8.0,17.0,19,0.00,,,0.00,WUHU216DAVISVP2,2013-02-08 20:15:00,
2013-02-08 13:20:00,59.5,17.1,29.94,SSW,199,9.0,14.0,19,0.00,,,0.00,WUHU216DAVISVP2,2013-02-08 20:20:00,
2013-02-08 13:25:00,59.6,14.7,29.94,SSW,199,9.0,19.0,17,0.00,,,0.00,WUHU216DAVISVP2,2013-02-08 20:25:00,
2013-02-08 13:30:00,60.0,10.5,29.93,SW,216,10.0,18.0,14,0.00,,,0.00,WUHU216DAVISVP2,2013-02-08 20:30:00,
2013-02-08 13:35:00,60.4,12.4,29.93,SW,218,8.0,18.0,15,0.00,,,0.00,WUHU216DAVISVP2,2013-02-08 20:35:00,
2013-02-08 13:40:00,60.5,12.5,29.93,SSW,206,11.0,17.0,15,0.00,,,0.00,WUHU216DAVISVP2,2013-02-08 20:40:00,
2013-02-08 13:45:00,60.3,10.8,29.93,SW,221,11.0,17.0,14,0.00,,,0.00,WUHU216DAVISVP2,2013-02-08 20:45:00,
2013-02-08 13:50:00,60.3,9.1,29.92,SSW,211,10.0,21.0,13,0.00,,,0.00,WUHU216DAVISVP2,2013-02-08 20:50:00,
2013-02-08 13:56:00,60.2,9.0,29.92,SSW,200,14.0,23.0,13,0.00,,,0.00,WUHU216DAVISVP2,2013-02-08 20:56:00,
2013-02-08 14:01:00,59.9,10.5,29.92,SSW,199,11.0,21.0,14,0.00,,,0.00,WUHU216DAVISVP2,2013-02-08 21:01:00,
2013-02-08 14:06:00,60.3,12.4,29.92,SSW,197,11.0,18.0,15,0.00,,,0.00,WUHU216DAVISVP2,2013-02-08 21:06:00,
2013-02-08 14:11:00,60.2,9.0,29.92,SSW,193,10.0,18.0,13,0.00,,,0.00,WUHU216DAVISVP2,2013-02-08 21:11:00,
2013-02-08 14:16:00,59.9,7.0,29.91,SSW,195,12.0,21.0,12,0.00,,,0.00,WUHU216DAVISVP2,2013-02-08 21:16:00,
2013-02-08 14:21:00,59.9,5.0,29.92,SSW,200,9.0,16.0,11,0.00,,,0.00,WUHU216DAVISVP2,2013-02-08 21:21:00,
2013-02-08 14:26:00,59.5,6.6,29.91,SSW,201,13.0,23.0,12,0.00,,,0.00,WUHU216DAVISVP2,2013-02-08 21:26:00,
2013-02-08 14:31:00,59.5,6.6,29.91,SSW,201,11.0,18.0,12,0.00,,,0.00,WUHU216DAVISVP2,2013-02-08 21:31:00,
2013-02-08 14:37:00,59.6,8.5,29.91,SSW,206,11.0,18.0,13,0.00,,,0.00,WUHU216DAVISVP2,2013-02-08 21:37:00,
2013-02-08 14:42:00,59.7,6.8,29.90,SSW,200,12.0,24.0,12,0.00,,,0.00,WUHU216DAVISVP2,2013-02-08 21:42:00,
2013-02-08 14:47:00,59.4,8.4,29.90,SSW,207,13.0,21.0,13,0.00,,,0.00,WUHU216DAVISVP2,2013-02-08 21:47:00,
2013-02-08 14:52:00,59.1,8.1,29.90,SSW,197,13.0,22.0,13,0.00,,,0.00,WUHU216DAVISVP2,2013-02-08 21:52:00,
2013-02-08 14:57:00,59.0,8.1,29.90,SSW,206,13.0,20.0,13,0.00,,,0.00,WUHU216DAVISVP2,2013-02-08 21:57:00,
2013-02-08 15:02:00,58.9,6.2,29.90,SSW,209,13.0,24.0,12,0.00,,,0.00,WUHU216DAVISVP2,2013-02-08 22:02:00,
2013-02-08 15:07:00,59.0,4.3,29.90,SSW,213,11.0,20.0,11,0.00,,,0.00,WUHU216DAVISVP2,2013-02-08 22:07:00,
2013-02-08 15:12:00,58.9,8.0,29.90,SSW,213,11.0,18.0,13,0.00,,,0.00,WUHU216DAVISVP2,2013-02-08 22:12:00,
2013-02-08 15:17:00,59.0,4.3,29.89,SSW,203,13.0,21.0,11,0.00,,,0.00,WUHU216DAVISVP2,2013-02-08 22:17:00,
2013-02-08 15:22:00,58.9,6.2,29.90,SSW,206,12.0,18.0,12,0.00,,,0.00,WUHU216DAVISVP2,2013-02-08 22:22:00,
2013-02-08 15:27:00,58.4,5.8,29.89,SSW,208,14.0,23.0,12,0.00,,,0.00,WUHU216DAVISVP2,2013-02-08 22:27:00,
2013-02-08 15:32:00,58.4,3.8,29.89,SSW,207,12.0,21.0,11,0.00,,,0.00,WUHU216DAVISVP2,2013-02-08 22:32:00,
2013-02-08 15:37:00,58.2,3.7,29.89,SSW,205,11.0,19.0,11,0.00,,,0.00,WUHU216DAVISVP2,2013-02-08 22:37:00,
2013-02-08 15:42:00,58.0,3.5,29.89,SSW,199,12.0,18.0,11,0.00,,,0.00,WUHU216DAVISVP2,2013-02-08 22:42:00,
2013-02-08 15:47:00,58.0,-0.9,29.89,SSW,209,13.0,23.0,9,0.00,,,0.00,WUHU216DAVISVP2,2013-02-08 22:47:00,
2013-02-08 15:53:00,58.1,-0.8,29.89,SSW,209,12.0,21.0,9,0.00,,,0.00,WUHU216DAVISVP2,2013-02-08 22:53:00,
2013-02-08 15:58:00,58.2,1.6,29.89,SSW,210,9.0,17.0,10,0.00,,,0.00,WUHU216DAVISVP2,2013-02-08 22:58:00,
2013-02-08 16:03:00,58.0,1.4,29.89,SSW,213,11.0,16.0,10,0.00,,,0.00,WUHU216DAVISVP2,2013-02-08 23:03:00,
2013-02-08 16:08:00,57.9,1.3,29.89,SSW,202,11.0,19.0,10,0.00,,,0.00,WUHU216DAVISVP2,2013-02-08 23:08:00,
2013-02-08 16:13:00,58.0,-3.3,29.89,SSW,207,10.0,18.0,8,0.00,,,0.00,WUHU216DAVISVP2,2013-02-08 23:13:00,
2013-02-08 16:18:00,57.9,-0.9,29.89,SSW,205,10.0,21.0,9,0.00,,,0.00,WUHU216DAVISVP2,2013-02-08 23:18:00,
2013-02-08 16:23:00,57.8,-1.0,29.89,SSW,210,10.0,18.0,9,0.00,,,0.00,WUHU216DAVISVP2,2013-02-08 23:23:00,
2013-02-08 16:28:00,57.6,-1.2,29.89,SSW,205,9.0,17.0,9,0.00,,,0.00,WUHU216DAVISVP2,2013-02-08 23:28:00,
2013-02-08 16:33:00,57.5,-3.7,29.89,SSW,199,8.0,16.0,8,0.00,,,0.00,WUHU216DAVISVP2,2013-02-08 23:33:00,
2013-02-08 16:38:00,57.3,-6.6,29.89,SSW,202,8.0,13.0,7,0.00,,,0.00,WUHU216DAVISVP2,2013-02-08 23:38:00,
2013-02-08 16:43:00,57.1,-1.5,29.89,SSW,204,7.0,15.0,9,0.00,,,0.00,WUHU216DAVISVP2,2013-02-08 23:43:00,
2013-02-08 16:48:00,57.0,0.7,29.89,SSW,200,5.0,11.0,10,0.00,,,0.00,WUHU216DAVISVP2,2013-02-08 23:48:00,
2013-02-08 16:53:00,57.0,6.5,29.89,SSW,193,7.0,12.0,13,0.00,,,0.00,WUHU216DAVISVP2,2013-02-08 23:53:00,
2013-02-08 16:58:00,56.8,8.0,29.89,SSW,195,6.0,12.0,14,0.00,,,0.00,WUHU216DAVISVP2,2013-02-08 23:58:00,
2013-02-08 17:04:00,56.6,9.4,29.89,SSW,196,6.0,14.0,15,0.00,,,0.00,WUHU216DAVISVP2,2013-02-09 00:04:00,
2013-02-08 17:09:00,56.4,7.7,29.89,SSW,195,7.0,12.0,14,0.00,,,0.00,WUHU216DAVISVP2,2013-02-09 00:09:00,
2013-02-08 17:14:00,56.1,7.4,29.89,SSW,203,7.0,13.0,14,0.00,,,0.00,WUHU216DAVISVP2,2013-02-09 00:14:00,
2013-02-08 17:19:00,55.9,8.8,29.88,SSW,200,8.0,16.0,15,0.00,,,0.00,WUHU216DAVISVP2,2013-02-09 00:19:00,
2013-02-08 17:24:00,55.6,8.6,29.88,SSW,200,7.0,14.0,15,0.00,,,0.00,WUHU216DAVISVP2,2013-02-09 00:24:00,
2013-02-08 17:29:00,55.3,6.8,29.88,SSW,203,7.0,13.0,14,0.00,,,0.00,WUHU216DAVISVP2,2013-02-09 00:29:00,
2013-02-08 17:34:00,55.0,6.6,29.89,SSW,207,7.0,13.0,14,0.00,,,0.00,WUHU216DAVISVP2,2013-02-09 00:34:00,
2013-02-08 17:39:00,54.6,6.2,29.88,SSW,209,5.0,11.0,14,0.00,,,0.00,WUHU216DAVISVP2,2013-02-09 00:39:00,
2013-02-08 17:44:00,54.4,7.6,29.89,SSW,210,5.0,10.0,15,0.00,,,0.00,WUHU216DAVISVP2,2013-02-09 00:44:00,
2013-02-08 17:49:00,54.0,7.3,29.88,SSW,206,4.0,8.0,15,0.00,,,0.00,WUHU216DAVISVP2,2013-02-09 00:49:00,
2013-02-08 17:54:00,53.7,8.5,29.88,SSW,198,4.0,8.0,16,0.00,,,0.00,WUHU216DAVISVP2,2013-02-09 00:54:00,
2013-02-08 17:59:00,53.4,9.6,29.88,SSW,198,4.0,7.0,17,0.00,,,0.00,WUHU216DAVISVP2,2013-02-09 00:59:00,
2013-02-08 18:04:00,53.0,9.3,29.89,SSW,198,2.0,5.0,17,0.00,,,0.00,WUHU216DAVISVP2,2013-02-09 01:04:00,
2013-02-08 18:09:00,52.7,10.3,29.89,SSW,196,3.0,8.0,18,0.00,,,0.00,WUHU216DAVISVP2,2013-02-09 01:09:00,
2013-02-08 18:15:00,52.6,11.4,29.89,SSW,203,5.0,11.0,19,0.00,,,0.00,WUHU216DAVISVP2,2013-02-09 01:15:00,
2013-02-08 18:20:00,52.3,11.2,29.89,SSW,204,3.0,7.0,19,0.00,,,0.00,WUHU216DAVISVP2,2013-02-09 01:20:00,
2013-02-08 18:25:00,52.2,11.1,29.90,SSW,198,5.0,11.0,19,0.00,,,0.00,WUHU216DAVISVP2,2013-02-09 01:25:00,
2013-02-08 18:30:00,52.1,12.2,29.90,SSW,201,3.0,6.0,20,0.00,,,0.00,WUHU216DAVISVP2,2013-02-09 01:30:00,
2013-02-08 18:35:00,51.9,12.0,29.90,SSW,199,4.0,9.0,20,0.00,,,0.00,WUHU216DAVISVP2,2013-02-09 01:35:00,
2013-02-08 18:40:00,51.6,12.8,29.90,SSW,199,2.0,3.0,21,0.00,,,0.00,WUHU216DAVISVP2,2013-02-09 01:40:00,
2013-02-08 18:45:00,51.3,12.6,29.90,SSW,198,2.0,6.0,21,0.00,,,0.00,WUHU216DAVISVP2,2013-02-09 01:45:00,
2013-02-08 18:50:00,51.1,13.4,29.89,SSW,195,3.0,6.0,22,0.00,,,0.00,WUHU216DAVISVP2,2013-02-09 01:50:00,
2013-02-08 18:55:00,51.0,13.4,29.89,SSW,200,3.0,6.0,22,0.00,,,0.00,WUHU216DAVISVP2,2013-02-09 01:55:00,
2013-02-08 19:00:00,50.8,14.2,29.89,SSW,193,4.0,9.0,23,0.00,,,0.00,WUHU216DAVISVP2,2013-02-09 02:00:00,
2013-02-08 19:05:00,50.9,14.3,29.89,South,191,4.0,7.0,23,0.00,,,0.00,WUHU216DAVISVP2,2013-02-09 02:05:00,
2013-02-08 19:11:00,50.9,15.2,29.89,South,188,4.0,7.0,24,0.00,,,0.00,WUHU216DAVISVP2,2013-02-09 02:11:00,
2013-02-08 19:16:00,50.6,15.0,29.89,SSW,192,2.0,5.0,24,0.00,,,0.00,WUHU216DAVISVP2,2013-02-09 02:16:00,
2013-02-08 19:21:00,50.2,14.6,29.90,North,0,0.0,0.0,24,0.00,,,0.00,WUHU216DAVISVP2,2013-02-09 02:21:00,
2013-02-08 19:26:00,49.8,15.2,29.89,North,0,0.0,0.0,25,0.00,,,0.00,WUHU216DAVISVP2,2013-02-09 02:26:00,
2013-02-08 19:31:00,49.4,14.9,29.89,North,0,0.0,0.0,25,0.00,,,0.00,WUHU216DAVISVP2,2013-02-09 02:31:00,
2013-02-08 19:36:00,49.0,14.5,29.89,North,0,0.0,0.0,25,0.00,,,0.00,WUHU216DAVISVP2,2013-02-09 02:36:00,
2013-02-08 19:41:00,48.7,15.2,29.89,North,0,0.0,0.0,26,0.00,,,0.00,WUHU216DAVISVP2,2013-02-09 02:41:00,
2013-02-08 19:46:00,48.2,14.7,29.89,North,0,0.0,0.0,26,0.00,,,0.00,WUHU216DAVISVP2,2013-02-09 02:46:00,
2013-02-08 19:51:00,47.9,15.3,29.89,North,0,0.0,0.0,27,0.00,,,0.00,WUHU216DAVISVP2,2013-02-09 02:51:00,
2013-02-08 19:56:00,47.5,15.0,29.89,North,0,0.0,0.0,27,0.00,,,0.00,WUHU216DAVISVP2,2013-02-09 02:56:00,
2013-02-08 20:01:00,47.1,15.4,29.89,North,0,0.0,0.0,28,0.00,,,0.00,WUHU216DAVISVP2,2013-02-09 03:01:00,
2013-02-08 20:06:00,46.9,16.1,29.89,North,0,0.0,0.0,29,0.00,,,0.00,WUHU216DAVISVP2,2013-02-09 03:06:00,
2013-02-08 20:12:00,47.0,16.2,29.89,North,0,0.0,0.0,29,0.00,,,0.00,WUHU216DAVISVP2,2013-02-09 03:12:00,
2013-02-08 20:17:00,47.1,16.2,29.89,North,0,0.0,0.0,29,0.00,,,0.00,WUHU216DAVISVP2,2013-02-09 03:17:00,
2013-02-08 20:22:00,47.2,16.3,29.89,North,0,0.0,0.0,29,0.00,,,0.00,WUHU216DAVISVP2,2013-02-09 03:22:00,
2013-02-08 20:27:00,47.2,16.3,29.89,South,177,1.0,1.0,29,0.00,,,0.00,WUHU216DAVISVP2,2013-02-09 03:27:00,
2013-02-08 20:32:00,47.1,16.2,29.89,North,0,0.0,0.0,29,0.00,,,0.00,WUHU216DAVISVP2,2013-02-09 03:32:00,
2013-02-08 20:37:00,47.5,15.8,29.88,South,173,3.0,7.0,28,0.00,,,0.00,WUHU216DAVISVP2,2013-02-09 03:37:00,
2013-02-08 20:42:00,48.3,15.7,29.88,South,176,4.0,8.0,27,0.00,,,0.00,WUHU216DAVISVP2,2013-02-09 03:42:00,
2013-02-08 20:47:00,48.5,15.8,29.88,South,175,4.0,8.0,27,0.00,,,0.00,WUHU216DAVISVP2,2013-02-09 03:47:00,
2013-02-08 20:52:00,48.5,15.8,29.88,South,170,4.0,7.0,27,0.00,,,0.00,WUHU216DAVISVP2,2013-02-09 03:52:00,
2013-02-08 20:57:00,48.4,14.9,29.88,South,173,4.0,8.0,26,0.00,,,0.00,WUHU216DAVISVP2,2013-02-09 03:57:00,
2013-02-08 21:02:00,48.4,14.0,29.88,South,183,4.0,8.0,25,0.00,,,0.00,WUHU216DAVISVP2,2013-02-09 04:02:00,
2013-02-08 21:07:00,48.2,12.9,29.88,SSW,195,3.0,7.0,24,0.00,,,0.00,WUHU216DAVISVP2,2013-02-09 04:07:00,
2013-02-08 21:12:00,48.3,12.1,29.88,South,181,4.0,9.0,23,0.00,,,0.00,WUHU216DAVISVP2,2013-02-09 04:12:00,
2013-02-08 21:17:00,48.4,12.2,29.87,South,182,5.0,11.0,23,0.00,,,0.00,WUHU216DAVISVP2,2013-02-09 04:17:00,
2013-02-08 21:22:00,48.2,12.0,29.87,South,182,3.0,6.0,23,0.00,,,0.00,WUHU216DAVISVP2,2013-02-09 04:22:00,
2013-02-08 21:28:00,48.1,11.9,29.87,South,182,4.0,8.0,23,0.00,,,0.00,WUHU216DAVISVP2,2013-02-09 04:28:00,
2013-02-08 21:33:00,48.7,12.4,29.87,South,188,9.0,17.0,23,0.00,,,0.00,WUHU216DAVISVP2,2013-02-09 04:33:00,
2013-02-08 21:38:00,48.6,13.3,29.87,South,183,5.0,11.0,24,0.00,,,0.00,WUHU216DAVISVP2,2013-02-09 04:38:00,
2013-02-08 21:43:00,48.3,14.8,29.87,South,188,6.0,13.0,26,0.00,,,0.00,WUHU216DAVISVP2,2013-02-09 04:43:00,
2013-02-08 21:48:00,47.9,14.5,29.87,South,182,4.0,10.0,26,0.00,,,0.00,WUHU216DAVISVP2,2013-02-09 04:48:00,
2013-02-08 21:53:00,47.7,15.1,29.87,South,178,5.0,14.0,27,0.00,,,0.00,WUHU216DAVISVP2,2013-02-09 04:53:00,
2013-02-08 21:58:00,47.4,15.7,29.87,South,177,4.0,9.0,28,0.00,,,0.00,WUHU216DAVISVP2,2013-02-09 04:58:00,
2013-02-08 22:03:00,47.1,17.0,29.86,South,178,3.0,10.0,30,0.00,,,0.00,WUHU216DAVISVP2,2013-02-09 05:03:00,
2013-02-08 22:08:00,46.8,17.5,29.86,South,172,4.0,9.0,31,0.00,,,0.00,WUHU216DAVISVP2,2013-02-09 05:08:00,
2013-02-08 22:13:00,46.7,17.4,29.86,South,185,6.0,16.0,31,0.00,,,0.00,WUHU216DAVISVP2,2013-02-09 05:13:00,
2013-02-08 22:18:00,47.1,18.5,29.86,South,184,7.0,14.0,32,0.00,,,0.00,WUHU216DAVISVP2,2013-02-09 05:18:00,
2013-02-08 22:23:00,47.0,19.1,29.86,South,177,7.0,13.0,33,0.00,,,0.00,WUHU216DAVISVP2,2013-02-09 05:23:00,
2013-02-08 22:28:00,46.8,19.0,29.86,South,181,7.0,17.0,33,0.00,,,0.00,WUHU216DAVISVP2,2013-02-09 05:28:00,
2013-02-08 22:33:00,47.0,18.4,29.85,South,185,8.0,19.0,32,0.00,,,0.00,WUHU216DAVISVP2,2013-02-09 05:33:00,
2013-02-08 22:38:00,47.3,18.7,29.85,South,189,10.0,16.0,32,0.00,,,0.00,WUHU216DAVISVP2,2013-02-09 05:38:00,
2013-02-08 22:44:00,47.0,18.4,29.86,South,187,8.0,15.0,32,0.00,,,0.00,WUHU216DAVISVP2,2013-02-09 05:44:00,
2013-02-08 22:49:00,47.0,19.1,29.85,SSW,192,9.0,15.0,33,0.00,,,0.00,WUHU216DAVISVP2,2013-02-09 05:49:00,
2013-02-08 22:54:00,47.1,18.5,29.85,SSW,197,12.0,22.0,32,0.00,,,0.00,WUHU216DAVISVP2,2013-02-09 05:54:00,
2013-02-08 22:59:00,47.2,18.6,29.84,SSW,194,12.0,22.0,32,0.00,,,0.00,WUHU216DAVISVP2,2013-02-09 05:59:00,
2013-02-08 23:04:00,47.1,17.8,29.84,SSW,196,12.0,19.0,31,0.00,,,0.00,WUHU216DAVISVP2,2013-02-09 06:04:00,
2013-02-08 23:09:00,47.0,17.7,29.84,South,190,11.0,19.0,31,0.00,,,0.00,WUHU216DAVISVP2,2013-02-09 06:09:00,
2013-02-08 23:14:00,47.2,17.9,29.84,South,191,12.0,24.0,31,0.00,,,0.00,WUHU216DAVISVP2,2013-02-09 06:14:00,
2013-02-08 23:19:00,46.9,18.3,29.84,SSW,193,11.0,19.0,32,0.00,,,0.00,WUHU216DAVISVP2,2013-02-09 06:19:00,
2013-02-08 23:24:00,47.0,19.1,29.83,SSW,199,13.0,24.0,33,0.00,,,0.00,WUHU216DAVISVP2,2013-02-09 06:24:00,
2013-02-08 23:29:00,47.1,19.2,29.83,SSW,192,13.0,22.0,33,0.00,,,0.00,WUHU216DAVISVP2,2013-02-09 06:29:00,
2013-02-08 23:34:00,47.1,19.9,29.83,South,191,14.0,23.0,34,0.00,,,0.00,WUHU216DAVISVP2,2013-02-09 06:34:00,
2013-02-08 23:39:00,47.0,21.8,29.83,SSW,194,15.0,24.0,37,0.00,,,0.00,WUHU216DAVISVP2,2013-02-09 06:39:00,
2013-02-08 23:44:00,46.9,22.4,29.83,SSW,193,13.0,23.0,38,0.00,,,0.00,WUHU216DAVISVP2,2013-02-09 06:44:00,
2013-02-08 23:49:00,46.9,23.0,29.83,SSW,192,14.0,23.0,39,0.00,,,0.00,WUHU216DAVISVP2,2013-02-09 06:49:00,
2013-02-08 23:54:00,46.6,23.4,29.83,SSW,192,10.0,17.0,40,0.00,,,0.00,WUHU216DAVISVP2,2013-02-09 06:54:00,
2013-02-08 23:59:00,46.7,23.5,29.82,SSW,193,14.0,24.0,40,0.00,,,0.00,WUHU216DAVISVP2,2013-02-09 06:59:00,